createdAt,value
2018-06-15T00:02:24.175Z,5.53
2018-06-15T00:04:52.603Z,5.70
2018-06-15T00:07:21.029Z,6.47
2018-06-15T00:09:49.036Z,6.53
2018-06-15T00:12:17.351Z,6.10
2018-06-15T00:14:45.625Z,5.80
2018-06-15T00:17:13.890Z,6.97
2018-06-15T00:19:42.210Z,10.20
2018-06-15T00:22:10.510Z,6.20
2018-06-15T00:24:38.789Z,6.83
2018-06-15T00:27:07.019Z,6.43
2018-06-15T00:29:35.272Z,6.47
2018-06-15T00:32:03.571Z,5.93
2018-06-15T00:34:32.407Z,6.03
2018-06-15T00:37:00.818Z,6.10
2018-06-15T00:39:29.159Z,6.10
2018-06-15T00:41:57.455Z,6.37
2018-06-15T00:44:25.714Z,5.63
2018-06-15T00:46:54.306Z,6.30
2018-06-15T00:49:22.631Z,6.33
2018-06-15T00:51:50.945Z,13.17
2018-06-15T00:54:19.210Z,6.90
2018-06-15T00:57:56.121Z,9.53
2018-06-15T01:00:24.448Z,9.03
2018-06-15T01:02:52.720Z,6.40
2018-06-15T01:05:20.945Z,6.37
2018-06-15T01:07:49.219Z,6.93
2018-06-15T01:10:17.528Z,5.67
2018-06-15T01:12:45.984Z,6.03
2018-06-15T01:15:14.366Z,7.07
2018-06-15T01:17:42.619Z,6.20
2018-06-15T01:20:10.947Z,6.37
2018-06-15T01:22:39.344Z,7.10
2018-06-15T01:25:07.658Z,6.50
2018-06-15T01:27:35.977Z,6.87
2018-06-15T01:30:04.703Z,6.93
2018-06-15T01:32:32.930Z,6.60
2018-06-15T01:35:01.279Z,7.30
2018-06-15T01:37:29.605Z,8.63
2018-06-15T01:39:57.856Z,7.27
2018-06-15T01:42:26.144Z,7.63
2018-06-15T01:44:54.415Z,8.07
2018-06-15T01:47:22.645Z,6.90
2018-06-15T01:49:51.017Z,8.13
2018-06-15T01:52:19.350Z,7.80
2018-06-15T01:54:47.904Z,7.23
2018-06-15T01:57:16.184Z,7.67
2018-06-15T01:59:44.435Z,8.03
2018-06-15T02:02:12.745Z,8.10
2018-06-15T02:04:41.024Z,7.23
2018-06-15T02:07:09.289Z,7.73
2018-06-15T02:09:37.572Z,7.60
2018-06-15T02:12:05.841Z,8.07
2018-06-15T02:14:34.184Z,10.50
2018-06-15T02:17:02.427Z,8.10
2018-06-15T02:19:30.740Z,10.83
2018-06-15T02:21:59.003Z,14.43
2018-06-15T02:24:27.354Z,8.83
2018-06-15T02:26:55.697Z,12.70
2018-06-15T02:29:23.963Z,12.13
2018-06-15T02:31:54.207Z,14.27
2018-06-15T02:34:22.526Z,8.30
2018-06-15T02:36:50.800Z,10.00
2018-06-15T02:39:19.160Z,13.00
2018-06-15T02:41:47.411Z,9.30
2018-06-15T02:44:15.697Z,9.57
2018-06-15T02:46:43.971Z,9.63
2018-06-15T02:49:12.250Z,9.63
2018-06-15T02:51:40.744Z,8.77
2018-06-15T02:54:09.000Z,8.13
2018-06-15T02:56:37.352Z,10.20
2018-06-15T02:59:06.227Z,6.93
2018-06-15T03:01:34.458Z,8.63
2018-06-15T03:04:02.841Z,8.20
2018-06-15T03:06:31.141Z,7.30
2018-06-15T03:08:59.161Z,9.67
2018-06-15T03:11:27.450Z,7.60
2018-06-15T03:13:55.699Z,7.50
2018-06-15T03:16:24.037Z,7.60
2018-06-15T03:18:52.629Z,8.30
2018-06-15T03:21:20.918Z,8.83
2018-06-15T03:23:49.316Z,7.63
2018-06-15T03:26:17.584Z,7.97
2018-06-15T03:28:45.935Z,7.37
2018-06-15T03:31:14.256Z,7.87
2018-06-15T03:33:42.568Z,7.77
2018-06-15T03:36:10.816Z,8.17
2018-06-15T03:38:39.156Z,7.47
2018-06-15T03:41:07.420Z,8.23
2018-06-15T03:43:35.732Z,12.30
2018-06-15T03:46:05.050Z,8.37
2018-06-15T03:48:33.327Z,9.47
2018-06-15T03:51:01.639Z,8.30
2018-06-15T03:53:29.973Z,9.30
2018-06-15T03:55:58.212Z,9.57
2018-06-15T03:58:26.594Z,9.47
2018-06-15T04:00:54.865Z,9.20
2018-06-15T04:03:23.135Z,7.53
2018-06-15T04:05:51.922Z,9.67
2018-06-15T04:08:20.471Z,8.10
2018-06-15T04:10:48.717Z,8.17
2018-06-15T04:13:16.965Z,8.30
2018-06-15T04:15:45.252Z,8.17
2018-06-15T04:18:13.358Z,8.13
2018-06-15T04:20:41.633Z,9.90
2018-06-15T04:23:09.878Z,9.90
2018-06-15T04:25:38.138Z,9.03
2018-06-15T04:28:06.388Z,8.03
2018-06-15T04:30:34.745Z,8.40
2018-06-15T04:33:03.053Z,8.33
2018-06-15T04:35:31.318Z,7.30
2018-06-15T04:37:59.603Z,9.23
2018-06-15T04:40:27.900Z,9.17
2018-06-15T04:42:57.176Z,9.63
2018-06-15T04:45:25.543Z,9.23
2018-06-15T04:47:53.876Z,8.40
2018-06-15T04:50:22.125Z,7.70
2018-06-15T04:52:50.404Z,8.20
2018-06-15T04:55:19.391Z,9.20
2018-06-15T04:57:47.672Z,8.87
2018-06-15T05:00:15.954Z,9.30
2018-06-15T05:02:44.225Z,9.33
2018-06-15T05:05:12.470Z,8.27
2018-06-15T05:07:40.834Z,9.20
2018-06-15T05:10:09.239Z,10.30
2018-06-15T05:12:37.536Z,9.70
2018-06-15T05:15:05.749Z,9.90
2018-06-15T05:17:34.040Z,8.60
2018-06-15T05:20:02.378Z,10.60
2018-06-15T05:22:30.641Z,9.43
2018-06-15T05:24:58.861Z,11.70
2018-06-15T05:27:27.152Z,8.57
2018-06-15T05:29:55.470Z,13.90
2018-06-15T05:32:24.927Z,9.83
2018-06-15T05:34:52.935Z,11.13
2018-06-15T05:37:21.203Z,7.30
2018-06-15T05:39:49.499Z,9.50
2018-06-15T05:42:17.845Z,8.80
2018-06-15T05:44:46.147Z,9.07
2018-06-15T05:47:14.386Z,8.27
2018-06-15T05:49:42.618Z,8.27
2018-06-15T05:52:10.934Z,10.67
2018-06-15T05:54:39.274Z,8.67
2018-06-15T05:57:07.618Z,10.03
2018-06-15T05:59:35.843Z,8.43
2018-06-15T06:02:04.106Z,9.50
2018-06-15T06:04:32.416Z,9.63
2018-06-15T06:07:00.716Z,9.43
2018-06-15T06:09:29.039Z,8.20
2018-06-15T06:11:57.349Z,10.37
2018-06-15T06:14:27.036Z,10.40
2018-06-15T06:16:55.509Z,8.87
2018-06-15T06:19:23.798Z,9.73
2018-06-15T06:21:52.155Z,9.53
2018-06-15T06:24:20.463Z,8.13
2018-06-15T06:26:48.745Z,9.70
2018-06-15T06:29:17.015Z,9.57
2018-06-15T06:31:45.281Z,9.37
2018-06-15T06:34:13.602Z,10.20
2018-06-15T06:36:41.892Z,9.00
2018-06-15T06:39:11.915Z,9.50
2018-06-15T06:41:40.494Z,8.50
2018-06-15T06:44:09.450Z,10.53
2018-06-15T06:46:37.780Z,12.10
2018-06-15T06:49:06.050Z,10.97
2018-06-15T06:51:34.319Z,11.70
2018-06-15T06:54:02.596Z,10.17
2018-06-15T06:56:30.882Z,8.43
2018-06-15T06:58:59.268Z,8.57
2018-06-15T07:01:27.557Z,8.97
2018-06-15T07:03:55.820Z,9.50
2018-06-15T07:06:24.177Z,9.00
2018-06-15T07:08:52.423Z,8.50
2018-06-15T07:11:20.747Z,10.00
2018-06-15T07:13:49.006Z,8.63
2018-06-15T07:16:17.240Z,8.30
2018-06-15T07:18:45.519Z,7.37
2018-06-15T07:21:13.854Z,7.30
2018-06-15T07:23:42.290Z,6.90
2018-06-15T07:26:10.504Z,8.17
2018-06-15T07:28:38.797Z,12.93
2018-06-15T07:31:07.026Z,9.40
2018-06-15T07:33:35.637Z,9.40
2018-06-15T07:36:04.037Z,11.73
2018-06-15T07:38:32.309Z,10.73
2018-06-15T07:41:00.554Z,12.37
2018-06-15T07:43:28.821Z,7.80
2018-06-15T07:45:56.849Z,8.67
2018-06-15T07:48:25.585Z,8.53
2018-06-15T07:50:53.847Z,8.27
2018-06-15T07:53:22.088Z,6.70
2018-06-15T07:55:50.419Z,7.40
2018-06-15T07:58:18.775Z,7.37
2018-06-15T08:00:47.167Z,8.13
2018-06-15T08:03:15.500Z,7.50
2018-06-15T08:05:43.809Z,7.37
2018-06-15T08:08:12.340Z,6.83
2018-06-15T08:10:40.584Z,6.47
2018-06-15T08:13:08.920Z,7.30
2018-06-15T08:15:37.271Z,7.17
2018-06-15T08:18:05.660Z,5.23
2018-06-15T08:20:33.918Z,6.80
2018-06-15T08:23:02.327Z,5.33
2018-06-15T08:25:30.748Z,6.50
2018-06-15T08:27:59.020Z,11.10
2018-06-15T08:30:27.276Z,8.83
2018-06-15T08:32:55.603Z,7.53
2018-06-15T08:35:24.123Z,6.73
2018-06-15T08:37:52.530Z,7.13
2018-06-15T08:40:20.873Z,9.47
2018-06-15T08:42:49.208Z,7.30
2018-06-15T08:45:17.686Z,5.90
2018-06-15T08:47:46.030Z,6.13
2018-06-15T08:50:14.587Z,7.07
2018-06-15T08:52:43.469Z,6.70
2018-06-15T08:55:11.704Z,6.83
2018-06-15T08:57:39.978Z,8.00
2018-06-15T09:00:08.347Z,6.73
2018-06-15T09:02:36.684Z,6.60
2018-06-15T09:05:05.054Z,7.30
2018-06-15T09:07:33.408Z,8.73
2018-06-15T09:10:01.745Z,10.40
2018-06-15T09:12:31.007Z,7.50
2018-06-15T09:14:59.611Z,8.47
2018-06-15T09:17:27.789Z,6.47
2018-06-15T09:19:56.078Z,5.83
2018-06-15T09:22:24.386Z,6.47
2018-06-15T09:24:53.200Z,5.93
2018-06-15T09:27:21.888Z,6.93
2018-06-15T09:29:50.407Z,5.73
2018-06-15T09:32:19.040Z,6.50
2018-06-15T09:34:47.496Z,6.60
2018-06-15T09:37:15.787Z,5.87
2018-06-15T09:39:44.167Z,5.20
2018-06-15T09:42:12.515Z,4.93
2018-06-15T09:44:40.811Z,5.63
2018-06-15T09:47:09.191Z,7.20
2018-06-15T09:49:37.789Z,4.30
2018-06-15T09:52:06.176Z,7.60
2018-06-15T09:54:34.467Z,7.40
2018-06-15T09:57:02.880Z,5.00
2018-06-15T09:59:31.244Z,5.30
2018-06-15T10:01:59.578Z,6.30
2018-06-15T10:04:28.018Z,6.77
2018-06-15T10:06:58.165Z,5.37
2018-06-15T10:09:26.834Z,5.80
2018-06-15T10:11:55.238Z,5.63
2018-06-15T10:14:23.534Z,6.70
2018-06-15T10:16:51.959Z,4.60
2018-06-15T10:19:21.323Z,5.33
2018-06-15T10:21:49.705Z,6.37
2018-06-15T10:24:18.012Z,4.20
2018-06-15T10:26:46.300Z,4.13
2018-06-15T10:29:14.665Z,5.50
2018-06-15T10:31:42.971Z,5.10
2018-06-15T10:34:11.365Z,4.47
2018-06-15T10:36:39.764Z,5.20
2018-06-15T10:39:09.695Z,4.50
2018-06-15T10:41:38.245Z,5.07
2018-06-15T10:44:06.627Z,4.90
2018-06-15T10:46:35.088Z,3.97
2018-06-15T10:49:04.491Z,6.43
2018-06-15T10:51:33.058Z,4.33
2018-06-15T10:54:01.458Z,3.90
2018-06-15T10:56:29.831Z,5.30
2018-06-15T10:58:58.121Z,4.07
2018-06-15T11:01:26.675Z,4.87
2018-06-15T11:03:55.182Z,6.00
2018-06-15T11:06:23.654Z,4.80
2018-06-15T11:08:52.067Z,6.70
2018-06-15T11:11:20.491Z,4.80
2018-06-15T11:13:48.840Z,5.30
2018-06-15T11:16:17.179Z,6.27
2018-06-15T11:18:45.538Z,4.37
2018-06-15T11:21:14.400Z,5.27
2018-06-15T11:23:42.735Z,5.80
2018-06-15T11:26:11.113Z,4.80
2018-06-15T11:28:39.552Z,8.87
2018-06-15T11:31:07.620Z,4.80
2018-06-15T11:33:35.929Z,8.07
2018-06-15T11:36:04.288Z,4.53
2018-06-15T11:38:33.045Z,4.70
2018-06-15T11:41:01.375Z,5.80
2018-06-15T11:43:29.829Z,4.40
2018-06-15T11:45:58.146Z,4.80
2018-06-15T11:48:26.538Z,4.80
2018-06-15T11:50:54.844Z,5.30
2018-06-15T11:53:23.182Z,6.00
2018-06-15T11:55:51.516Z,5.10
2018-06-15T11:58:20.402Z,5.43
2018-06-15T12:00:48.836Z,5.33
2018-06-15T12:03:17.159Z,6.50
2018-06-15T12:05:46.178Z,8.87
2018-06-15T12:08:14.521Z,9.13
2018-06-15T12:10:42.864Z,6.10
2018-06-15T12:13:11.304Z,4.03
2018-06-15T12:15:40.100Z,5.63
2018-06-15T12:18:08.700Z,4.40
2018-06-15T12:20:38.000Z,4.67
2018-06-15T12:23:06.490Z,7.40
2018-06-15T12:25:35.168Z,5.90
2018-06-15T12:28:04.396Z,4.57
2018-06-15T12:30:33.192Z,5.00
2018-06-15T12:33:01.974Z,6.17
2018-06-15T12:35:31.149Z,7.60
2018-06-15T12:38:00.094Z,6.67
2018-06-15T12:40:28.588Z,6.67
2018-06-15T12:42:57.085Z,4.13
2018-06-15T12:45:26.013Z,3.80
2018-06-15T12:47:54.550Z,5.07
2018-06-15T12:50:23.144Z,5.50
2018-06-15T12:52:51.777Z,4.97
2018-06-15T12:55:20.364Z,5.47
2018-06-15T12:57:49.089Z,5.60
2018-06-15T13:00:17.887Z,4.83
2018-06-15T13:02:46.345Z,4.77
2018-06-15T13:05:15.113Z,5.63
2018-06-15T13:07:43.720Z,7.40
2018-06-15T13:10:12.131Z,6.43
2018-06-15T13:12:40.728Z,4.40
2018-06-15T13:15:09.836Z,4.53
2018-06-15T13:17:38.352Z,9.77
2018-06-15T13:20:06.844Z,6.07
2018-06-15T13:22:35.399Z,4.60
2018-06-15T13:25:03.899Z,5.30
2018-06-15T13:27:32.515Z,4.57
2018-06-15T13:30:01.356Z,7.33
2018-06-15T13:32:29.918Z,4.57
2018-06-15T13:34:58.545Z,3.60
2018-06-15T13:37:28.172Z,4.80
2018-06-15T13:39:56.649Z,6.77
2018-06-15T13:42:25.331Z,4.90
2018-06-15T13:44:53.812Z,4.40
2018-06-15T13:47:22.446Z,4.37
2018-06-15T13:49:51.189Z,4.43
2018-06-15T13:52:19.895Z,6.30
2018-06-15T13:54:48.638Z,5.37
2018-06-15T13:57:17.366Z,4.20
2018-06-15T13:59:45.797Z,5.00
2018-06-15T14:02:14.497Z,3.90
2018-06-15T14:04:43.072Z,4.90
2018-06-15T14:07:11.534Z,4.30
2018-06-15T14:09:40.064Z,5.30
2018-06-15T14:12:09.000Z,7.30
2018-06-15T14:14:37.560Z,5.43
2018-06-15T14:17:06.081Z,5.60
2018-06-15T14:19:34.521Z,4.07
2018-06-15T14:22:02.994Z,4.67
2018-06-15T14:24:31.784Z,4.20
2018-06-15T14:27:00.882Z,4.10
2018-06-15T14:29:30.805Z,5.73
2018-06-15T14:32:00.193Z,4.40
2018-06-15T14:34:28.839Z,5.20
2018-06-15T14:36:58.339Z,3.80
2018-06-15T14:39:26.996Z,4.13
2018-06-15T14:41:56.017Z,6.73
2018-06-15T14:44:24.406Z,4.90
2018-06-15T14:46:52.936Z,4.27
2018-06-15T14:49:21.474Z,5.13
2018-06-15T14:51:49.952Z,4.97
2018-06-15T14:54:18.599Z,5.70
2018-06-15T14:56:47.444Z,4.23
2018-06-15T14:59:16.216Z,4.47
2018-06-15T15:01:44.957Z,4.23
2018-06-15T15:04:13.122Z,4.20
2018-06-15T15:06:41.564Z,7.50
2018-06-15T15:09:10.353Z,3.93
2018-06-15T15:11:38.880Z,3.87
2018-06-15T15:14:07.442Z,4.50
2018-06-15T15:16:35.738Z,4.37
2018-06-15T15:19:04.431Z,5.27
2018-06-15T15:21:32.723Z,4.67
2018-06-15T15:24:01.055Z,5.13
2018-06-15T15:26:29.562Z,3.50
2018-06-15T15:28:58.107Z,3.63
2018-06-15T15:31:26.557Z,4.20
2018-06-15T15:33:54.985Z,6.80
2018-06-15T15:36:23.364Z,4.63
2018-06-15T15:38:52.380Z,4.43
2018-06-15T15:41:20.644Z,7.93
2018-06-15T15:43:48.969Z,7.23
2018-06-15T15:46:17.249Z,4.10
2018-06-15T15:48:45.572Z,4.70
2018-06-15T15:51:13.964Z,4.30
2018-06-15T15:53:41.945Z,4.83
2018-06-15T15:56:10.501Z,5.03
2018-06-15T15:58:39.808Z,5.60
2018-06-15T16:01:08.228Z,10.90
2018-06-15T16:03:36.966Z,4.10
2018-06-15T16:06:05.399Z,4.23
2018-06-15T16:08:33.746Z,4.63
2018-06-15T16:11:05.042Z,4.00
2018-06-15T16:13:33.388Z,5.20
2018-06-15T16:16:01.828Z,3.70
2018-06-15T16:18:30.138Z,3.87
2018-06-15T16:20:58.730Z,3.83
2018-06-15T16:23:27.235Z,4.07
2018-06-15T16:25:56.118Z,3.77
2018-06-15T16:28:24.643Z,3.90
2018-06-15T16:30:52.944Z,3.53
2018-06-15T16:33:21.327Z,3.70
2018-06-15T16:35:49.694Z,5.37
2018-06-15T16:38:18.209Z,3.67
2018-06-15T16:40:46.733Z,2.97
2018-06-15T16:43:15.043Z,4.10
2018-06-15T16:45:43.329Z,4.20
2018-06-15T16:48:11.700Z,3.47
2018-06-15T16:50:40.098Z,3.63
2018-06-15T16:53:08.413Z,3.77
2018-06-15T16:55:37.010Z,4.47
2018-06-15T16:58:05.397Z,4.23
2018-06-15T17:00:33.706Z,4.03
2018-06-15T17:03:02.012Z,3.20
2018-06-15T17:05:30.535Z,5.80
2018-06-15T17:07:58.988Z,4.93
2018-06-15T17:10:27.307Z,4.00
2018-06-15T17:12:55.656Z,4.13
2018-06-15T17:15:23.990Z,4.37
2018-06-15T17:17:52.321Z,4.00
2018-06-15T17:20:20.674Z,3.97
2018-06-15T17:22:48.971Z,4.50
2018-06-15T17:25:17.353Z,4.60
2018-06-15T17:27:46.051Z,3.67
2018-06-15T17:30:14.418Z,5.57
2018-06-15T17:32:42.762Z,4.60
2018-06-15T17:35:11.120Z,3.03
2018-06-15T17:37:39.424Z,3.97
2018-06-15T17:40:07.746Z,4.50
2018-06-15T17:42:36.084Z,3.73
2018-06-15T17:45:04.476Z,12.43
2018-06-15T17:47:32.764Z,3.53
2018-06-15T17:50:01.209Z,4.03
2018-06-15T17:52:29.531Z,4.40
2018-06-15T17:54:57.880Z,4.30
2018-06-15T17:57:26.227Z,5.20
2018-06-15T17:59:54.567Z,4.30
2018-06-15T18:02:22.950Z,4.73
2018-06-15T18:04:52.138Z,4.07
2018-06-15T18:07:20.506Z,4.10
2018-06-15T18:09:48.897Z,5.13
2018-06-15T18:12:17.327Z,6.27
2018-06-15T18:14:45.393Z,4.60
2018-06-15T18:17:13.720Z,4.17
2018-06-15T18:19:42.059Z,4.30
2018-06-15T18:22:10.404Z,4.60
2018-06-15T18:24:38.773Z,5.87
2018-06-15T18:27:07.176Z,6.73
2018-06-15T18:29:35.522Z,4.07
2018-06-15T18:32:03.906Z,5.47
2018-06-15T18:34:32.239Z,5.83
2018-06-15T18:37:01.697Z,4.83
2018-06-15T18:39:30.054Z,4.60
2018-06-15T18:41:58.389Z,5.57
2018-06-15T18:44:26.746Z,4.63
2018-06-15T18:46:55.036Z,4.50
2018-06-15T18:49:23.401Z,6.13
2018-06-15T18:51:51.894Z,7.07
2018-06-15T18:54:20.274Z,6.00
2018-06-15T18:56:48.642Z,4.83
2018-06-15T18:59:17.111Z,7.90
2018-06-15T19:01:45.169Z,5.70
2018-06-15T19:04:13.528Z,6.03
2018-06-15T19:06:41.878Z,8.10
2018-06-15T19:09:11.405Z,11.97
2018-06-15T19:11:39.686Z,7.80
2018-06-15T19:14:08.002Z,7.53
2018-06-15T19:16:36.271Z,6.20
2018-06-15T19:19:05.146Z,6.20
2018-06-15T19:21:33.525Z,5.80
2018-06-15T19:24:02.159Z,6.40
2018-06-15T19:26:30.636Z,6.20
2018-06-15T19:28:59.021Z,6.97
2018-06-15T19:31:27.270Z,7.20
2018-06-15T19:33:55.645Z,6.60
2018-06-15T19:36:24.070Z,6.93
2018-06-15T19:38:52.409Z,6.43
2018-06-15T19:41:20.789Z,8.30
2018-06-15T19:43:49.397Z,9.57
2018-06-15T19:46:17.743Z,6.10
2018-06-15T19:48:46.074Z,6.43
2018-06-15T19:51:14.376Z,5.53
2018-06-15T19:53:42.755Z,9.37
2018-06-15T19:56:11.113Z,6.63
2018-06-15T19:58:39.544Z,5.83
2018-06-15T20:01:07.909Z,8.00
2018-06-15T20:03:36.271Z,6.20
2018-06-15T20:06:04.596Z,5.30
2018-06-15T20:08:32.952Z,8.97
2018-06-15T20:11:01.795Z,7.90
2018-06-15T20:13:30.094Z,6.70
2018-06-15T20:15:58.446Z,6.83
2018-06-15T20:18:26.791Z,7.70
2018-06-15T20:20:55.105Z,7.47
2018-06-15T20:23:23.501Z,7.03
2018-06-15T20:25:51.830Z,6.93
2018-06-15T20:28:20.219Z,5.93
2018-06-15T20:30:49.290Z,6.03
2018-06-15T20:33:18.514Z,6.30
2018-06-15T20:35:46.966Z,6.93
2018-06-15T20:38:15.363Z,7.60
2018-06-15T20:40:43.814Z,6.57
2018-06-15T20:43:12.304Z,6.10
2018-06-15T20:45:40.838Z,6.57
2018-06-15T20:48:09.202Z,6.90
2018-06-15T20:50:37.560Z,7.87
2018-06-15T20:53:05.970Z,7.53
2018-06-15T20:55:34.277Z,8.23
2018-06-15T20:58:02.608Z,7.60
2018-06-15T21:00:31.059Z,7.40
2018-06-15T21:02:59.757Z,7.20
2018-06-15T21:05:28.126Z,8.40
2018-06-15T21:07:56.408Z,8.40
2018-06-15T21:10:24.724Z,6.43
2018-06-15T21:12:53.177Z,8.70
2018-06-15T21:15:21.953Z,7.47
2018-06-15T21:17:50.256Z,9.33
2018-06-15T21:20:18.659Z,10.00
2018-06-15T21:22:47.004Z,10.13
2018-06-15T21:25:16.822Z,8.70
2018-06-15T21:27:45.211Z,8.90
2018-06-15T21:30:13.316Z,8.63
2018-06-15T21:32:41.696Z,9.73
2018-06-15T21:35:10.096Z,7.50
2018-06-15T21:37:38.499Z,9.20
2018-06-15T21:40:06.800Z,8.73
2018-06-15T21:42:35.623Z,8.70
2018-06-15T21:45:03.984Z,8.77
2018-06-15T21:47:32.319Z,10.17
2018-06-15T21:50:00.773Z,7.57
2018-06-15T21:52:29.154Z,6.73
2018-06-15T21:54:57.229Z,11.10
2018-06-15T21:57:25.557Z,7.30
2018-06-15T21:59:54.012Z,7.20
2018-06-15T22:02:22.505Z,9.77
2018-06-15T22:04:50.876Z,8.00
2018-06-15T22:07:19.902Z,8.43
2018-06-15T22:09:48.359Z,9.37
2018-06-15T22:12:16.936Z,8.73
2018-06-15T22:14:45.330Z,11.00
2018-06-15T22:17:13.717Z,10.00
2018-06-15T22:19:42.134Z,8.60
2018-06-15T22:22:10.519Z,9.17
2018-06-15T22:24:38.959Z,8.23
2018-06-15T22:27:07.307Z,8.60
2018-06-15T22:29:35.669Z,12.00
2018-06-15T22:32:04.064Z,10.77
2018-06-15T22:34:32.406Z,11.13
2018-06-15T22:37:00.711Z,12.30
2018-06-15T22:39:29.056Z,9.37
2018-06-15T22:41:57.348Z,11.00
2018-06-15T22:44:25.713Z,9.97
2018-06-15T22:46:54.092Z,9.47
2018-06-15T22:49:22.423Z,8.63
2018-06-15T22:51:50.862Z,9.67
2018-06-15T22:54:19.165Z,8.33
2018-06-15T22:56:47.503Z,8.77
2018-06-15T22:59:15.846Z,8.80
2018-06-15T23:01:44.136Z,9.33
2018-06-15T23:04:12.527Z,8.70
2018-06-15T23:06:40.926Z,8.37
2018-06-15T23:09:10.792Z,10.80
2018-06-15T23:11:39.377Z,9.00
2018-06-15T23:14:07.746Z,7.93
2018-06-15T23:16:36.206Z,10.97
2018-06-15T23:19:05.485Z,8.67
2018-06-15T23:21:33.829Z,9.80
2018-06-15T23:24:02.189Z,9.70
2018-06-15T23:26:30.555Z,7.80
2018-06-15T23:28:58.937Z,7.80
2018-06-15T23:31:28.842Z,10.97
2018-06-15T23:33:57.181Z,8.33
2018-06-15T23:36:25.522Z,8.30
2018-06-15T23:38:53.867Z,7.87
2018-06-15T23:41:22.232Z,7.37
2018-06-15T23:43:50.617Z,11.97
2018-06-15T23:46:19.041Z,11.33
2018-06-15T23:48:47.350Z,8.13
2018-06-15T23:51:15.730Z,10.83
2018-06-15T23:53:44.075Z,8.27
2018-06-15T23:56:12.406Z,11.23
2018-06-15T23:58:40.722Z,9.30
